Flight Track Log - Related Links

Times and Time Zones

All times are in EDT time to prevent confusion due to time zone crossing. See the DAL268 flight status page for this flight to view local times or setup timezone preferences in your user account.

Time Position Orientation Groundspeed Altitude Reporting Facility
EDT Latitude Longitude Course Direction KTS MPH feet Rate Location/Type
Mon 02:20:35 PM 37.6160 -122.3820 North 12 14  Level FlightAware ADS-B
Mon 02:22:01 PM 37.6150 -122.3810 142° Southeast 9 10 38 Level FlightAware ADS-B
Mon 02:22:25 PM 37.6160 -122.3810 360° North 9 10 41 Level FlightAware ADS-B
Mon 02:25:00 PM 37.8587 -122.1246 38° Northeast  Level FlightAware Approximate
Mon 02:26:00 PM 37.9565 -122.0269 38° Northeast  Level FlightAware Approximate
Mon 02:26:18 PM 37.6150 -122.3800 38° Northeast 11 13  Level FlightAware ADS-B
Mon 02:27:03 PM 37.6150 -122.3810 270° West 17 20 53 Level FlightAware ADS-B
Mon 02:29:00 PM 37.7982 -122.1851 38° Northeast  Level FlightAware Approximate
Mon 02:30:00 PM 37.8960 -122.0874 38° Northeast  Level FlightAware Approximate
Mon 02:30:28 PM 37.6100 -122.3840 38° Northeast 27 31  Level FlightAware ADS-B
Mon 02:30:57 PM 37.6080 -122.3850 202° Southwest 21 24 73 Level FlightAware ADS-B
Mon 02:32:09 PM 37.6070 -122.3840 142° Southeast 76 Level FlightAware ADS-B
Mon 02:34:00 PM 37.7870 -122.1963 38° Northeast  Level FlightAware Approximate
Mon 02:35:00 PM 37.8848 -122.0986 38° Northeast  Level FlightAware Approximate
Mon 02:35:23 PM 37.6060 -122.3830 38° Northeast 19 22  Level FlightAware ADS-B
Mon 02:38:00 PM 37.8620 -122.1214 38° Northeast  Level FlightAware Approximate
Mon 02:38:08 PM 37.6060 -122.3810 38° Northeast  Level FlightAware ADS-B
Mon 02:40:00 PM 37.7887 -122.1947 38° Northeast  Level FlightAware Approximate
Mon 02:40:39 PM 37.6070 -122.3810 38° Northeast 29 33  Level FlightAware ADS-B
Mon 02:41:06 PM 37.6180 -122.3740 27° Northeast 150 173 980 Level FlightAware ADS-B
Mon 02:41:28 PM 37.6327 -122.3630 31° Northeast 164 189 800 2,250 Climbing FlightAware ADS-B
Mon 02:41:38 PM 37.6389 -122.3570 37° Northeast 171 197 1,200 2,211 Climbing FlightAware ADS-B
Mon 02:41:47 PM 37.6436 -122.3510 45° Northeast 176 203 1,500 1,500 Climbing FlightAware ADS-B
Mon 02:42:02 PM 37.6524 -122.3390 47° Northeast 200 230 1,800 889 Climbing FlightAware ADS-B
Mon 02:42:14 PM 37.6607 -122.3270 49° Northeast 226 260 1,900 1,286 Climbing FlightAware ADS-B
Mon 02:42:30 PM 37.6729 -122.3120 44° Northeast 243 280 2,400 2,063 Climbing FlightAware ADS-B
Mon 02:42:46 PM 37.6858 -122.2960 44° Northeast 252 290 3,000 2,222 Climbing FlightAware ADS-B
Mon 02:42:57 PM 37.6956 -122.2840 44° Northeast 265 305 3,400 2,609 Climbing FlightAware ADS-B
Mon 02:43:09 PM 37.7063 -122.2720 42° Northeast 263 303 4,000 3,000 Climbing FlightAware ADS-B
Mon 02:43:19 PM 37.7159 -122.2620 39° Northeast 266 306 4,500 2,471 Climbing FlightAware ADS-B
Mon 02:43:43 PM 37.7404 -122.2390 37° Northeast 278 320 5,400 2,512 Climbing FlightAware ADS-B
Mon 02:44:02 PM 37.7590 -122.2190 40° Northeast 284 327 6,300 2,706 Climbing FlightAware ADS-B
Mon 02:44:34 PM 37.7925 -122.1850 39° Northeast 290 334 7,700 2,553 Climbing FlightAware ADS-B
Mon 02:44:49 PM 37.8095 -122.1690 37° Northeast 298 343 8,300 2,516 Climbing FlightAware ADS-B
Mon 02:45:05 PM 37.8267 -122.1530 36° Northeast 300 345 9,000 2,625 Climbing FlightAware ADS-B
Mon 02:45:21 PM 37.8447 -122.1360 37° Northeast 302 348 9,700 2,170 Climbing FlightAware ADS-B
Mon 02:45:52 PM 37.8796 -122.1020 38° Northeast 315 362 10,700 1,475 Climbing FlightAware ADS-B
Mon 02:46:22 PM 37.9173 -122.0650 38° Northeast 349 402 11,200 984 Climbing FlightAware ADS-B
Mon 02:46:53 PM 37.9575 -122.0260 37° Northeast 376 433 11,700 1,279 Climbing FlightAware ADS-B
Mon 02:47:23 PM 38.0007 -121.9840 37° Northeast 394 453 12,500 2,057 Climbing FlightAware ADS-B
Mon 02:48:03 PM 38.0591 -121.9280 37° Northeast 397 457 14,100 2,147 Climbing FlightAware ADS-B
Mon 02:48:58 PM 38.1400 -121.8490 38° Northeast 409 471 15,900 1,918 Climbing FlightAware ADS-B
Mon 02:49:40 PM 38.2050 -121.7860 37° Northeast 420 483 17,200 1,816 Climbing FlightAware ADS-B
Mon 02:50:14 PM 38.2570 -121.7350 38° Northeast 427 491 18,200 1,816 Climbing FlightAware ADS-B
Mon 02:50:56 PM 38.3240 -121.6700 37° Northeast 434 499 19,500 1,786 Climbing FlightAware ADS-B
Mon 02:51:38 PM 38.3890 -121.6050 38° Northeast 441 507 20,700 1,650 Climbing FlightAware ADS-B
Mon 02:52:16 PM 38.4500 -121.5360 42° Northeast 449 517 21,700 1,538 Climbing FlightAware ADS-B
Mon 02:52:56 PM 38.5020 -121.4530 51° Northeast 455 524 22,700 1,425 Climbing FlightAware ADS-B
Mon 02:53:36 PM 38.5530 -121.3650 53° Northeast 463 533 23,600 1,385 Climbing FlightAware ADS-B
Mon 02:54:14 PM 38.6010 -121.2810 54° Northeast 470 541 24,500 1,357 Climbing FlightAware ADS-B
Mon 02:55:00 PM 38.6610 -121.1780 53° Northeast 478 550 25,500 1,295 Climbing FlightAware ADS-B
Mon 02:55:42 PM 38.7170 -121.0820 53° Northeast 485 558 26,400 1,157 Climbing FlightAware ADS-B
Mon 02:56:23 PM 38.7700 -120.9900 54° Northeast 495 570 27,100 1,034 Climbing FlightAware ADS-B
Mon 02:57:09 PM 38.8350 -120.8770 54° Northeast 504 580 27,900 1,200 Climbing FlightAware ADS-B
Mon 02:57:48 PM 38.8900 -120.7830 53° Northeast 506 582 28,800 1,429 Climbing FlightAware ADS-B
Mon 02:58:33 PM 38.9490 -120.6810 53° Northeast 504 580 29,900 1,390 Climbing FlightAware ADS-B
Mon 02:59:10 PM 39.0010 -120.5910 53° Northeast 507 583 30,700 1,403 Climbing FlightAware ADS-B
Mon 02:59:50 PM 39.0590 -120.4890 54° Northeast 506 582 31,700 1,281 Climbing FlightAware ADS-B
Mon 03:00:39 PM 39.1260 -120.3720 54° Northeast 507 583 32,600 907 Climbing FlightAware ADS-B
Mon 03:01:16 PM 39.1790 -120.2790 54° Northeast 510 587 33,000 640 Climbing FlightAware ADS-B
Mon 03:01:54 PM 39.2320 -120.1860 54° Northeast 510 587 33,400 1,000 Climbing FlightAware ADS-B
Mon 03:02:34 PM 39.2880 -120.0870 54° Northeast 510 587 34,300 1,091 Climbing FlightAware ADS-B
Mon 03:03:11 PM 39.3390 -119.9970 54° Northeast 513 590 34,800 857 Climbing FlightAware ADS-B
Mon 03:03:51 PM 39.3940 -119.9000 54° Northeast 515 593 35,400 857 Climbing FlightAware ADS-B
Mon 03:04:35 PM 39.4570 -119.7880 54° Northeast 517 595 36,000 847 Climbing FlightAware ADS-B
Mon 03:05:16 PM 39.5140 -119.6870 54° Northeast 518 596 36,600 714 Climbing FlightAware ADS-B
Mon 03:05:59 PM 39.5750 -119.5780 54° Northeast 520 598 37,000 276 Climbing FlightAware ADS-B
Mon 03:06:43 PM 39.6360 -119.4680 54° Northeast 520 598 37,000  Level FlightAware ADS-B
Mon 03:07:23 PM 39.6930 -119.3670 54° Northeast 519 597 37,000  Level FlightAware ADS-B
Mon 03:08:05 PM 39.7520 -119.2600 54° Northeast 520 598 37,000  Level FlightAware ADS-B
Mon 03:08:39 PM 39.7990 -119.1750 54° Northeast 520 598 37,000  Level FlightAware ADS-B
Mon 03:09:23 PM 39.8610 -119.0620 54° Northeast 520 598 37,000  Level FlightAware ADS-B
Mon 03:10:03 PM 39.9170 -118.9590 55° Northeast 520 598 37,000  Level FlightAware ADS-B
Mon 03:10:45 PM 39.9760 -118.8530 54° Northeast 519 597 37,000  Level FlightAware ADS-B
Mon 03:11:23 PM 40.0120 -118.7860 55° Northeast 520 598 37,000  Level FlightAware ADS-B
Mon 03:12:05 PM 40.0860 -118.6490 55° Northeast 520 598 37,000  Level FlightAware ADS-B
Mon 03:12:43 PM 40.1330 -118.5440 60° Northeast 518 596 37,000  Level FlightAware ADS-B
Mon 03:13:15 PM 40.1600 -118.4540 69° East 517 595 37,000  Level FlightAware ADS-B
Mon 03:13:56 PM 40.1980 -118.3370 67° East 519 597 37,000  Level FlightAware ADS-B
Mon 03:14:41 PM 40.2480 -118.2100 63° Northeast 519 597 37,000  Level FlightAware ADS-B
Mon 03:15:25 PM 40.2890 -118.1030 63° Northeast 520 598 37,000  Level FlightAware ADS-B
Mon 03:16:20 PM 40.3460 -117.9500 64° Northeast 520 598 37,000  Level FlightAware ADS-B
Mon 03:16:59 PM 40.3810 -117.8550 64° Northeast 520 598 37,000  Level FlightAware ADS-B
Mon 03:17:37 PM 40.4150 -117.7640 64° Northeast 520 598 37,000  Level FlightAware ADS-B
Mon 03:18:13 PM 40.4470 -117.6770 64° Northeast 520 598 37,000  Level FlightAware ADS-B
Mon 03:18:50 PM 40.4810 -117.5870 64° Northeast 520 598 37,000  Level FlightAware ADS-B
Mon 03:19:38 PM 40.5240 -117.4710 64° Northeast 520 598 37,000  Level FlightAware ADS-B
Mon 03:20:14 PM 40.5560 -117.3840 64° Northeast 520 598 37,000  Level FlightAware ADS-B
Mon 03:21:05 PM 40.6020 -117.2610 64° Northeast 520 598 37,000  Level FlightAware ADS-B
Mon 03:21:52 PM 40.6440 -117.1470 64° Northeast 520 598 37,000  Level FlightAware ADS-B
Mon 03:22:53 PM 40.6980 -116.9990 64° Northeast 520 598 37,000  Level FlightAware ADS-B
Mon 03:23:30 PM 40.7320 -116.9090 63° Northeast 520 598 37,000  Level FlightAware ADS-B
Mon 03:24:18 PM 40.7750 -116.7930 64° Northeast 520 598 37,000  Level FlightAware ADS-B
Mon 03:24:53 PM 40.8060 -116.7080 64° Northeast 520 598 37,000  Level FlightAware ADS-B
Mon 03:25:40 PM 40.8480 -116.5940 64° Northeast 520 598 37,000  Level FlightAware ADS-B
Mon 03:27:35 PM 41.0462 -115.9860 66° East 526 605 37,000  Level FlightAware ADS-B
Mon 03:28:05 PM 41.0770 -115.8970 65° Northeast 527 606 37,000  Level FlightAware ADS-B
Mon 03:28:36 PM 41.1083 -115.8070 65° Northeast 528 608 37,000  Level FlightAware ADS-B
Mon 03:29:28 PM 41.1612 -115.6530 65° Northeast 528 608 37,000  Level FlightAware ADS-B
Mon 03:30:33 PM 41.2250 -115.4660 66° East 529 609 37,000  Level FlightAware ADS-B
Mon 03:30:51 PM 41.2444 -115.4100 65° Northeast 529 609 37,000  Level FlightAware ADS-B
Mon 03:31:21 PM 41.2749 -115.3200 66° East 529 609 37,000  Level FlightAware ADS-B
Mon 03:31:52 PM 41.3058 -115.2290 66° East 530 610 37,000  Level FlightAware ADS-B
Mon 03:32:22 PM 41.3363 -115.1390 66° East 529 609 37,000  Level FlightAware ADS-B
Mon 03:32:53 PM 41.3663 -115.0500 66° East 530 610 37,000  Level FlightAware ADS-B
Mon 03:33:23 PM 41.3967 -114.9590 66° East 530 610 37,000  Level FlightAware ADS-B
Mon 03:33:54 PM 41.4279 -114.8660 66° East 530 610 37,000  Level FlightAware ADS-B
Mon 03:34:31 PM 41.4640 -114.7580 66° East 529 609 37,000  Level FlightAware ADS-B
Mon 03:35:04 PM 41.4968 -114.6590 66° East 529 609 37,000  Level FlightAware ADS-B
Mon 03:35:34 PM 41.5266 -114.5690 66° East 529 609 37,000  Level FlightAware ADS-B
Mon 03:36:04 PM 41.5564 -114.4790 66° East 528 608 37,000  Level FlightAware ADS-B
Mon 03:36:35 PM 41.5858 -114.3890 66° East 528 608 37,000  Level FlightAware ADS-B
Mon 03:37:06 PM 41.6164 -114.2960 66° East 528 608 37,000  Level FlightAware ADS-B
Mon 03:37:36 PM 41.6456 -114.2070 66° East 530 610 37,000  Level FlightAware ADS-B
Mon 03:38:06 PM 41.6752 -114.1160 66° East 529 609 37,000  Level FlightAware ADS-B
Mon 03:38:37 PM 41.7056 -114.0220 67° East 529 609 37,000  Level FlightAware ADS-B
Mon 03:39:07 PM 41.7347 -113.9320 67° East 530 610 37,000  Level FlightAware ADS-B
Mon 03:39:49 PM 41.7749 -113.8080 66° East 530 610 37,000  Level FlightAware ADS-B
Mon 03:40:21 PM 41.8055 -113.7120 67° East 531 611 37,000  Level FlightAware ADS-B
Mon 03:40:52 PM 41.8354 -113.6190 67° East 532 612 37,000  Level FlightAware ADS-B
Mon 03:41:30 PM 41.8727 -113.5010 67° East 531 611 37,000  Level FlightAware ADS-B
Mon 03:42:26 PM 41.9258 -113.3340 67° East 531 611 37,000  Level FlightAware ADS-B
Mon 03:43:14 PM 41.9723 -113.1860 67° East 531 611 37,000  Level FlightAware ADS-B
Mon 03:43:47 PM 42.0034 -113.0870 67° East 529 609 37,000  Level FlightAware ADS-B
Mon 03:44:28 PM 42.0424 -112.9620 67° East 532 612 37,000  Level FlightAware ADS-B
Mon 03:45:13 PM 42.0850 -112.8260 67° East 531 611 37,000  Level FlightAware ADS-B
Mon 03:45:57 PM 42.1266 -112.6900 68° East 532 612 37,000  Level FlightAware ADS-B
Mon 03:46:43 PM 42.1697 -112.5500 67° East 532 612 37,000  Level FlightAware ADS-B
Mon 03:47:21 PM 42.2146 -112.4420 61° Northeast 533 613 37,000  Level FlightAware ADS-B
Mon 03:47:47 PM 42.2570 -112.3740 50° Northeast 533 613 37,000  Level FlightAware ADS-B
Mon 03:48:44 PM 42.3490 -112.2410 47° Northeast 531 611 37,000  Level FlightAware ADS-B
Mon 03:49:12 PM 42.3993 -112.1710 46° Northeast 533 613 37,000  Level FlightAware ADS-B
Mon 03:50:15 PM 42.5068 -112.0200 46° Northeast 533 613 37,000  Level FlightAware ADS-B
Mon 03:50:45 PM 42.5582 -111.9480 46° Northeast 531 611 37,000  Level FlightAware ADS-B
Mon 03:51:22 PM 42.6215 -111.8590 46° Northeast 533 613 37,000  Level FlightAware ADS-B
Mon 03:52:04 PM 42.6934 -111.7580 46° Northeast 532 612 37,000  Level FlightAware ADS-B
Mon 03:52:38 PM 42.7506 -111.6760 46° Northeast 530 610 37,000  Level FlightAware ADS-B
Mon 03:54:09 PM 42.8944 -111.4706 46° Northeast 529 609 37,000  Level Salt Lake Center
Mon 03:55:11 PM 42.9914 -111.3314 46° Northeast 529 609 37,000  Level Salt Lake Center
Mon 03:56:13 PM 43.1042 -111.1678 47° Northeast 530 610 37,000  Level Salt Lake Center
Mon 03:57:15 PM 43.2000 -111.0289 47° Northeast 527 606 37,000  Level Salt Lake Center
Mon 03:58:17 PM 43.3125 -110.8639 47° Northeast 531 611 37,000  Level Salt Lake Center
Mon 03:59:19 PM 43.4083 -110.7228 47° Northeast 530 610 37,000  Level Salt Lake Center
Mon 04:00:21 PM 43.5206 -110.5531 48° Northeast 539 620 37,000  Level Salt Lake Center
Mon 04:01:23 PM 43.6169 -110.4117 47° Northeast 533 613 37,000  Level Salt Lake Center
Mon 04:02:25 PM 43.7328 -110.2550 44° Northeast 520 598 37,000  Level Salt Lake Center
Mon 04:03:27 PM 43.8389 -110.1244 42° Northeast 528 608 37,000  Level Salt Lake Center
Mon 04:04:29 PM 43.9628 -109.9744 41° Northeast 530 610 37,000  Level Salt Lake Center
Mon 04:05:31 PM 44.0667 -109.8403 43° Northeast 533 613 37,000  Level Salt Lake Center
Mon 04:06:33 PM 44.1869 -109.6814 43° Northeast 535 616 37,000  Level Salt Lake Center
Mon 04:07:35 PM 44.2897 -109.5456 43° Northeast 531 611 37,000  Level Salt Lake Center
Mon 04:08:37 PM 44.4014 -109.3947 44° Northeast 526 605 37,000 484 Level Salt Lake Center
Mon 04:09:39 PM 44.5089 -109.2522 43° Northeast 531 611 38,000 968 Climbing Salt Lake Center
Mon 04:10:41 PM 44.6100 -109.1069 46° Northeast 524 603 39,000 484 Climbing Salt Lake Center
Mon 04:11:43 PM 44.7131 -108.9664 44° Northeast 518 596 39,000  Level Salt Lake Center
Mon 04:12:45 PM 44.8153 -108.8258 44° Northeast 514 592 39,000  Level Salt Lake Center
Mon 04:13:47 PM 44.9422 -108.6514 44° Northeast 527 606 39,000  Level Salt Lake Center
Mon 04:14:49 PM 45.0481 -108.5039 45° Northeast 531 611 39,000  Level Salt Lake Center
Mon 04:15:51 PM 45.1517 -108.3519 46° Northeast 533 613 39,000  Level Salt Lake Center
Mon 04:16:53 PM 45.2586 -108.2058 44° Northeast 529 609 39,000  Level Salt Lake Center
Mon 04:17:55 PM 45.3633 -108.0589 45° Northeast 527 606 39,000  Level Salt Lake Center
Mon 04:18:57 PM 45.4594 -107.8994 49° Northeast 527 606 39,000  Level Salt Lake Center
Mon 04:19:59 PM 45.5217 -107.7078 65° Northeast 532 612 39,000  Level Salt Lake Center
Mon 04:21:01 PM 45.5550 -107.5042 77° East 526 605 39,000  Level Salt Lake Center
Mon 04:22:03 PM 45.5942 -107.2600 77° East 525 604 39,000  Level Salt Lake Center
Mon 04:23:05 PM 45.6256 -107.0558 78° East 526 605 39,000  Level Salt Lake Center
Mon 04:24:07 PM 45.6556 -106.8519 78° East 525 604 39,000  Level Salt Lake Center
Mon 04:25:09 PM 45.6850 -106.6494 78° East 523 602 39,000  Level Salt Lake Center
Mon 04:26:10 PM 45.7153 -106.4472 78° East 522 601 39,000  Level Salt Lake Center
Mon 04:27:12 PM 45.7442 -106.2450 78° East 520 598 39,000  Level Salt Lake Center
Mon 04:28:14 PM 45.7797 -106.0033 78° East 519 597 39,000  Level Salt Lake Center
Mon 04:29:16 PM 45.8094 -105.8019 78° East 518 596 39,000  Level Salt Lake Center
Mon 04:30:19 PM 45.8378 -105.5992 79° East 519 597 39,000  Level Salt Lake Center
Mon 04:31:20 PM 45.8706 -105.4011 77° East 515 593 39,000  Level Salt Lake Center
Mon 04:32:22 PM 45.8958 -105.1953 80° East 520 598 39,000  Level Salt Lake Center
Mon 04:33:24 PM 45.9261 -104.9928 78° East 520 598 39,000  Level Salt Lake Center
Mon 04:34:26 PM 45.9544 -104.7892 79° East 521 600 39,000  Level Salt Lake Center
Mon 04:35:28 PM 45.9878 -104.5450 79° East 520 598 39,000  Level Salt Lake Center
Mon 04:36:29 PM 46.0122 -104.3633 79° East 521 600 39,000 -49 Level Salt Lake Center
Mon 04:37:31 PM 46.0394 -104.1586 79° East 523 602 38,900  Descending Salt Lake Center
Mon 04:38:33 PM 46.0717 -103.9142 79° East 522 601 39,000 48 Climbing Salt Lake Center
Mon 04:39:35 PM 46.0975 -103.7092 80° East 522 601 39,000  Level Salt Lake Center
Mon 04:40:38 PM 46.1228 -103.5047 80° East 522 601 39,000  Level Salt Lake Center
Mon 04:41:39 PM 46.1489 -103.2969 80° East 524 603 39,000  Level Salt Lake Center
Mon 04:42:41 PM 46.1750 -103.0917 80° East 526 605 39,000  Level Salt Lake Center
Mon 04:43:42 PM 46.2008 -102.8831 80° East 527 606 39,000  Level Salt Lake Center
Mon 04:44:44 PM 46.2292 -102.6389 80° East 524 603 39,000  Level Salt Lake Center
Mon 04:45:46 PM 46.2522 -102.4358 81° East 521 600 39,000 -48 Level Salt Lake Center
Mon 04:46:48 PM 46.2758 -102.2292 81° East 521 600 38,900  Descending Salt Lake Center
Mon 04:47:50 PM 46.2989 -102.0242 81° East 521 600 39,000  Climbing Salt Lake Center
Mon 04:48:51 PM 46.3233 -101.8156 80° East 522 601 38,900  Descending Salt Lake Center
Mon 04:49:21 PM 46.3358 -101.7050 81° East 523 602 39,000 65 Climbing Minneapolis Center
Mon 04:50:23 PM 46.3589 -101.4981 81° East 521 600 39,000  Level Minneapolis Center
Mon 04:51:25 PM 46.3800 -101.2922 81° East 519 597 39,000  Level Minneapolis Center
Mon 04:52:27 PM 46.4019 -101.0844 81° East 519 597 39,000  Level Minneapolis Center
Mon 04:53:30 PM 46.4261 -100.8364 82° East 518 596 39,000  Level Minneapolis Center
Mon 04:54:32 PM 46.4478 -100.6286 81° East 518 596 39,000  Level Minneapolis Center
Mon 04:55:34 PM 46.4672 -100.4211 82° East 519 597 39,000  Level Minneapolis Center
Mon 04:56:48 PM 46.4900 -100.1719 82° East 518 596 39,000  Level Minneapolis Center
Mon 04:57:50 PM 46.5100 -99.9644 82° East 518 596 39,000  Level Minneapolis Center
Mon 04:58:52 PM 46.5286 -99.7594 82° East 516 594 39,000  Level Minneapolis Center
Mon 04:59:54 PM 46.5475 -99.5547 82° East 513 590 39,000  Level Minneapolis Center
Mon 05:05:02 PM 46.6390 -98.4460 82° East 519 597 39,000  Level FlightAware ADS-B
Mon 05:06:04 PM 46.6500 -98.2300 86° East 519 597 39,000  Level FlightAware ADS-B
Mon 05:07:26 PM 46.6610 -97.9450 87° East 520 598 39,000  Level FlightAware ADS-B
Mon 05:08:10 PM 46.6680 -97.7910 86° East 521 600 39,000  Level FlightAware ADS-B
Mon 05:08:52 PM 46.6740 -97.6450 87° East 521 600 39,000  Level FlightAware ADS-B
Mon 05:09:26 PM 46.6780 -97.5270 87° East 522 601 39,000  Level FlightAware ADS-B
Mon 05:10:31 PM 46.6870 -97.3330 86° East 522 601 39,000  Level FlightAware ADS-B
Mon 05:11:21 PM 46.6920 -97.1470 88° East 522 601 39,000  Level FlightAware ADS-B
Mon 05:12:10 PM 46.6970 -97.0000 87° East 522 601 39,000  Level FlightAware ADS-B
Mon 05:12:46 PM 46.7010 -96.8930 87° East 522 601 39,000  Level FlightAware ADS-B
Mon 05:13:34 PM 46.7060 -96.7490 87° East 522 601 39,000  Level FlightAware ADS-B
Mon 05:14:10 PM 46.7100 -96.6420 87° East 522 601 39,000  Level FlightAware ADS-B
Mon 05:14:56 PM 46.7160 -96.3710 88° East 522 601 39,000  Level FlightAware ADS-B
Mon 05:15:46 PM 46.7210 -96.2110 87° East 522 601 39,000  Level FlightAware ADS-B
Mon 05:16:26 PM 46.7240 -96.0580 88° East 522 601 39,000  Level FlightAware ADS-B
Mon 05:17:16 PM 46.7280 -95.9100 88° East 522 601 39,000  Level FlightAware ADS-B
Mon 05:17:52 PM 46.7310 -95.8030 88° East 522 601 39,000  Level FlightAware ADS-B
Mon 05:18:56 PM 46.7360 -95.5610 88° East 522 601 39,000  Level FlightAware ADS-B
Mon 05:19:32 PM 46.7390 -95.4540 88° East 522 601 39,000  Level FlightAware ADS-B
Mon 05:20:17 PM 46.7420 -95.2470 89° East 520 598 39,000  Level FlightAware ADS-B
Mon 05:20:57 PM 46.7440 -95.1110 89° East 519 597 39,000  Level FlightAware ADS-B
Mon 05:21:35 PM 46.7460 -94.9740 89° East 519 597 39,000  Level FlightAware ADS-B
Mon 05:22:21 PM 46.7490 -94.8380 88° East 519 597 39,000  Level FlightAware ADS-B
Mon 05:23:13 PM 46.7520 -94.6500 89° East 511 588 39,000  Level FlightAware ADS-B
Mon 05:23:47 PM 46.7520 -94.5270 90° East 504 580 39,000  Level FlightAware ADS-B
Mon 05:24:37 PM 46.7540 -94.3500 89° East 503 579 39,000  Level FlightAware ADS-B
Mon 05:25:19 PM 46.7560 -94.2080 89° East 503 579 39,000  Level FlightAware ADS-B
Mon 05:25:59 PM 46.7570 -94.0730 89° East 503 579 39,000  Level FlightAware ADS-B
Mon 05:26:38 PM 46.7570 -93.9440 90° East 503 579 39,000  Level FlightAware ADS-B
Mon 05:27:24 PM 46.7580 -93.7870 89° East 504 580 39,000  Level FlightAware ADS-B
Mon 05:28:06 PM 46.7590 -93.6440 89° East 504 580 39,000  Level FlightAware ADS-B
Mon 05:28:40 PM 46.7590 -93.5270 90° East 504 580 39,000  Level FlightAware ADS-B
Mon 05:29:22 PM 46.7600 -93.3840 89° East 504 580 39,000  Level FlightAware ADS-B
Mon 05:30:12 PM 46.7600 -93.2180 90° East 504 580 39,000  Level FlightAware ADS-B
Mon 05:31:02 PM 46.7600 -93.0480 90° East 504 580 39,000  Level FlightAware ADS-B
Mon 05:31:42 PM 46.7590 -92.9100 91° East 503 579 39,000  Level FlightAware ADS-B
Mon 05:32:26 PM 46.7590 -92.7630 90° East 503 579 39,000  Level FlightAware ADS-B
Mon 05:33:06 PM 46.7580 -92.6290 91° East 503 579 39,000  Level FlightAware ADS-B
Mon 05:33:40 PM 46.7580 -92.5120 90° East 503 579 39,000  Level FlightAware ADS-B
Mon 05:34:22 PM 46.7570 -92.3710 91° East 503 579 39,000  Level FlightAware ADS-B
Mon 05:35:06 PM 46.7550 -92.2200 91° East 504 580 39,000  Level FlightAware ADS-B
Mon 05:35:40 PM 46.7540 -92.1060 91° East 503 579 39,000  Level FlightAware ADS-B
Mon 05:36:21 PM 46.7530 -91.9700 91° East 503 579 39,000  Level FlightAware ADS-B
Mon 05:37:05 PM 46.7510 -91.8220 91° East 503 579 39,000  Level FlightAware ADS-B
Mon 05:37:46 PM 46.7490 -91.6810 91° East 503 579 39,000  Level FlightAware ADS-B
Mon 05:38:30 PM 46.7470 -91.5300 91° East 503 579 39,000  Level FlightAware ADS-B
Mon 05:39:10 PM 46.7450 -91.3980 91° East 503 579 39,000  Level FlightAware ADS-B
Mon 05:39:54 PM 46.7430 -91.2480 91° East 499 574 39,000  Level FlightAware ADS-B
Mon 05:40:34 PM 46.7400 -91.1130 92° East 497 572 39,000  Level FlightAware ADS-B
Mon 05:41:19 PM 46.7380 -90.9680 91° East 496 571 39,000  Level FlightAware ADS-B
Mon 05:42:00 PM 46.7350 -90.8290 92° East 495 570 39,000  Level FlightAware ADS-B
Mon 05:42:44 PM 46.7320 -90.6830 92° East 494 568 39,000  Level FlightAware ADS-B
Mon 05:43:22 PM 46.7290 -90.5570 92° East 492 566 39,000  Level FlightAware ADS-B
Mon 05:44:07 PM 46.7250 -90.4070 92° East 494 568 39,000  Level FlightAware ADS-B
Mon 05:44:39 PM 46.7230 -90.3020 92° East 502 578 39,000  Level FlightAware ADS-B
Mon 05:45:23 PM 46.7190 -90.1510 92° East 508 585 39,000  Level FlightAware ADS-B
Mon 05:46:04 PM 46.7150 -90.0120 92° East 512 589 39,000  Level FlightAware ADS-B
Mon 05:46:47 PM 46.7110 -89.8640 92° East 515 593 39,000  Level FlightAware ADS-B
Mon 05:47:31 PM 46.7060 -89.7090 93° East 516 594 39,000  Level FlightAware ADS-B
Mon 05:48:11 PM 46.7020 -89.5700 92° East 517 595 39,000  Level FlightAware ADS-B
Mon 05:48:53 PM 46.6970 -89.4240 93° East 517 595 39,000  Level FlightAware ADS-B
Mon 05:49:35 PM 46.6920 -89.2820 93° East 517 595 39,000  Level FlightAware ADS-B
Mon 05:50:15 PM 46.6870 -89.1410 93° East 516 594 39,000  Level FlightAware ADS-B
Mon 05:50:57 PM 46.6820 -88.9960 93° East 516 594 39,000  Level FlightAware ADS-B
Mon 05:51:54 PM 46.6750 -88.8180 93° East 516 594 39,000  Level FlightAware ADS-B
Mon 05:52:30 PM 46.6720 -88.7120 92° East 516 594 39,000  Level FlightAware ADS-B
Mon 05:53:18 PM 46.6660 -88.5700 93° East 516 594 39,000  Level FlightAware ADS-B
Mon 05:53:55 PM 46.6620 -88.4610 93° East 516 594 39,000  Level FlightAware ADS-B
Mon 05:54:44 PM 46.6570 -88.3160 93° East 516 594 39,000  Level FlightAware ADS-B
Mon 05:55:18 PM 46.6540 -88.2160 92° East 516 594 39,000  Level FlightAware ADS-B
Mon 05:56:06 PM 46.6480 -88.0740 93° East 516 594 39,000  Level FlightAware ADS-B
Mon 05:56:42 PM 46.6450 -87.9680 92° East 516 594 39,000  Level FlightAware ADS-B
Mon 05:57:18 PM 46.6410 -87.8620 93° East 516 594 39,000  Level FlightAware ADS-B
Mon 05:58:08 PM 46.6350 -87.7140 93° East 516 594 39,000  Level FlightAware ADS-B
Mon 05:58:44 PM 46.6320 -87.6080 92° East 516 594 39,000  Level FlightAware ADS-B
Mon 05:59:20 PM 46.6280 -87.5020 93° East 516 594 39,000  Level FlightAware ADS-B
Mon 06:00:08 PM 46.6230 -87.3600 93° East 516 594 39,000  Level FlightAware ADS-B
Mon 06:00:53 PM 46.5880 -86.9580 97° East 507 583 39,000  Level FlightAware ADS-B
Mon 06:01:29 PM 46.5820 -86.8390 94° East 508 585 39,000  Level FlightAware ADS-B
Mon 06:02:09 PM 46.5740 -86.7000 95° East 508 585 39,000  Level FlightAware ADS-B
Mon 06:02:51 PM 46.5660 -86.5580 95° East 509 586 39,000  Level FlightAware ADS-B
Mon 06:03:35 PM 46.5570 -86.4090 95° East 509 586 39,000  Level FlightAware ADS-B
Mon 06:04:15 PM 46.5490 -86.2720 95° East 509 586 39,000  Level FlightAware ADS-B
Mon 06:04:59 PM 46.5400 -86.1250 95° East 510 587 39,000  Level FlightAware ADS-B
Mon 06:05:41 PM 46.5300 -85.9810 96° East 511 588 39,000  Level FlightAware ADS-B
Mon 06:06:21 PM 46.5220 -85.8450 95° East 511 588 39,000  Level FlightAware ADS-B
Mon 06:07:05 PM 46.5120 -85.6950 95° East 512 589 39,000  Level FlightAware ADS-B
Mon 06:07:45 PM 46.5030 -85.5580 95° East 513 590 39,000  Level FlightAware ADS-B
Mon 06:08:31 PM 46.4920 -85.3980 96° East 514 592 39,000  Level FlightAware ADS-B
Mon 06:09:11 PM 46.4830 -85.2640 96° East 516 594 39,000  Level FlightAware ADS-B
Mon 06:09:51 PM 46.4730 -85.1230 96° East 517 595 39,000  Level FlightAware ADS-B
Mon 06:10:23 PM 46.4650 -85.0160 96° East 518 596 39,000  Level FlightAware ADS-B
Mon 06:11:23 PM 46.4500 -84.8070 96° East 521 600 39,000  Level FlightAware ADS-B
Mon 06:12:07 PM 46.4410 -84.6950 97° East 522 601 39,000  Level FlightAware ADS-B
Mon 06:12:41 PM 46.4290 -84.5350 96° East 522 601 39,000  Level FlightAware ADS-B
Mon 06:13:23 PM 46.4180 -84.3910 96° East 520 598 39,000  Level FlightAware ADS-B
Mon 06:14:07 PM 46.4150 -84.2410 92° East 518 596 39,000  Level FlightAware ADS-B
Mon 06:14:39 PM 46.4150 -84.1310 90° East 516 594 39,000  Level FlightAware ADS-B
Mon 06:15:17 PM 46.4150 -83.9990 90° East 515 593 39,000  Level FlightAware ADS-B
Mon 06:16:47 PM 46.4170 -83.6900 89° East 511 588 39,000  Level FlightAware ADS-B
Mon 06:17:27 PM 46.4180 -83.5600 89° East 509 586 39,000  Level FlightAware ADS-B
Mon 06:18:09 PM 46.4190 -83.4090 89° East 506 582 39,000  Level FlightAware ADS-B
Mon 06:18:55 PM 46.4190 -83.2570 90° East 505 581 39,000  Level FlightAware ADS-B
Mon 06:19:41 PM 46.4200 -83.1000 89° East 503 579 39,000  Level FlightAware ADS-B
Mon 06:20:17 PM 46.4200 -82.9810 90° East 502 578 39,000  Level FlightAware ADS-B
Mon 06:21:03 PM 46.4190 -82.8300 90° East 501 577 39,000  Level FlightAware ADS-B
Mon 06:21:37 PM 46.4190 -82.7160 90° East 501 577 39,000  Level FlightAware ADS-B
Mon 06:22:21 PM 46.4190 -82.5640 90° East 500 575 39,000  Level FlightAware ADS-B
Mon 06:23:06 PM 46.4060 -82.4180 97° East 501 577 39,000  Level FlightAware ADS-B
Mon 06:23:46 PM 46.3620 -82.2980 118° Southeast 501 577 39,000  Level FlightAware ADS-B
Mon 06:24:25 PM 46.3140 -82.1870 122° Southeast 501 577 39,000  Level FlightAware ADS-B
Mon 06:25:11 PM 46.2580 -82.0580 122° Southeast 500 575 39,000  Level FlightAware ADS-B
Mon 06:25:51 PM 46.2110 -81.9490 122° Southeast 499 574 39,000  Level FlightAware ADS-B
Mon 06:26:45 PM 46.1560 -81.8180 121° Southeast 499 574 39,000  Level FlightAware ADS-B
Mon 06:27:24 PM 46.0960 -81.6830 123° Southeast 499 574 39,000  Level FlightAware ADS-B
Mon 06:28:07 PM 46.0430 -81.5610 122° Southeast 498 573 39,000  Level FlightAware ADS-B
Mon 06:28:48 PM 45.9950 -81.4520 122° Southeast 497 572 39,000  Level FlightAware ADS-B
Mon 06:29:32 PM 45.9390 -81.3250 122° Southeast 497 572 39,000  Level FlightAware ADS-B
Mon 06:30:09 PM 45.8930 -81.2220 123° Southeast 497 572 39,000  Level FlightAware ADS-B
Mon 06:30:52 PM 45.8410 -81.1030 122° Southeast 497 572 39,000  Level FlightAware ADS-B
Mon 06:31:34 PM 45.7890 -80.9860 122° Southeast 498 573 39,000  Level FlightAware ADS-B
Mon 06:32:19 PM 45.7320 -80.8600 123° Southeast 498 573 39,000  Level FlightAware ADS-B
Mon 06:32:56 PM 45.6860 -80.7590 123° Southeast 500 575 39,000  Level FlightAware ADS-B
Mon 06:33:39 PM 45.6330 -80.6400 122° Southeast 499 574 39,000  Level FlightAware ADS-B
Mon 06:34:23 PM 45.5770 -80.5180 123° Southeast 500 575 39,000  Level FlightAware ADS-B
Mon 06:35:08 PM 45.5210 -80.3940 123° Southeast 501 577 39,000 79 Level FlightAware ADS-B
Mon 06:35:39 PM 45.4820 -80.3090 123° Southeast 505 581 39,100 480 Climbing FlightAware ADS-B
Mon 06:36:23 PM 45.4250 -80.1830 123° Southeast 507 583 39,600 621 Climbing FlightAware ADS-B
Mon 06:37:06 PM 45.3700 -80.0650 124° Southeast 504 580 40,000 293 Climbing FlightAware ADS-B
Mon 06:37:45 PM 45.3210 -79.9600 124° Southeast 493 567 40,000  Level FlightAware ADS-B
Mon 06:38:30 PM 45.2640 -79.8370 123° Southeast 491 565 40,000  Level FlightAware ADS-B
Mon 06:39:11 PM 45.2140 -79.7280 123° Southeast 493 567 40,000  Level FlightAware ADS-B
Mon 06:40:07 PM 45.1440 -79.5800 124° Southeast 494 568 40,000  Level FlightAware ADS-B
Mon 06:40:35 PM 45.1080 -79.5020 123° Southeast 494 568 40,000  Level FlightAware ADS-B
Mon 06:41:20 PM 45.0540 -79.3880 124° Southeast 495 570 40,000  Level FlightAware ADS-B
Mon 06:42:05 PM 44.9980 -79.2710 124° Southeast 495 570 40,000  Level FlightAware ADS-B
Mon 06:42:40 PM 44.9520 -79.1740 124° Southeast 497 572 40,000  Level FlightAware ADS-B
Mon 06:43:20 PM 44.9020 -79.0680 124° Southeast 497 572 40,000  Level FlightAware ADS-B
Mon 06:44:05 PM 44.8440 -78.9470 124° Southeast 497 572 40,000  Level FlightAware ADS-B
Mon 06:44:45 PM 44.7940 -78.8430 124° Southeast 496 571 40,000  Level FlightAware ADS-B
Mon 06:45:25 PM 44.7400 -78.7330 125° Southeast 496 571 40,000  Level FlightAware ADS-B
Mon 06:46:10 PM 44.6830 -78.6150 124° Southeast 497 572 40,000  Level FlightAware ADS-B
Mon 06:46:50 PM 44.6300 -78.5070 125° Southeast 496 571 40,000  Level FlightAware ADS-B
Mon 06:47:25 PM 44.5850 -78.4130 124° Southeast 497 572 40,000  Level FlightAware ADS-B
Mon 06:48:10 PM 44.5270 -78.2960 125° Southeast 495 570 40,000  Level FlightAware ADS-B
Mon 06:48:50 PM 44.4780 -78.1960 124° Southeast 494 568 40,000  Level FlightAware ADS-B
Mon 06:49:25 PM 44.4320 -78.1020 124° Southeast 491 565 40,000  Level FlightAware ADS-B
Mon 06:50:06 PM 44.3780 -77.9950 125° Southeast 489 563 40,000  Level FlightAware ADS-B
Mon 06:50:50 PM 44.3210 -77.8790 124° Southeast 486 559 40,000  Level FlightAware ADS-B
Mon 06:51:30 PM 44.2700 -77.7770 125° Southeast 483 556 40,000  Level FlightAware ADS-B
Mon 06:52:15 PM 44.2120 -77.6620 125° Southeast 479 551 40,000  Level FlightAware ADS-B
Mon 06:52:55 PM 44.1620 -77.5620 125° Southeast 477 549 40,000  Level FlightAware ADS-B
Mon 06:53:36 PM 44.1120 -77.4620 125° Southeast 473 544 40,000  Level FlightAware ADS-B
Mon 06:54:20 PM 44.0550 -77.3510 126° Southeast 470 541 40,000  Level FlightAware ADS-B
Mon 06:55:00 PM 44.0050 -77.2510 125° Southeast 468 539 40,000  Level FlightAware ADS-B
Mon 06:55:45 PM 43.9490 -77.1410 125° Southeast 467 537 40,000  Level FlightAware ADS-B
Mon 06:56:25 PM 43.9000 -77.0450 125° Southeast 464 534 40,000  Level FlightAware ADS-B
Mon 06:57:06 PM 43.8510 -76.9500 126° Southeast 464 534 40,000  Level FlightAware ADS-B
Mon 06:57:50 PM 43.7950 -76.8420 126° Southeast 463 533 40,000  Level FlightAware ADS-B
Mon 06:58:25 PM 43.7500 -76.7560 126° Southeast 464 534 40,000  Level FlightAware ADS-B
Mon 06:59:10 PM 43.6850 -76.6570 132° Southeast 463 533 40,000  Level FlightAware ADS-B
Mon 06:59:50 PM 43.6250 -76.5770 136° Southeast 463 533 40,000 -150 Level FlightAware ADS-B
Mon 07:00:30 PM 43.5620 -76.4940 136° Southeast 460 529 39,800 -706 Descending FlightAware ADS-B
Mon 07:01:15 PM 43.4920 -76.4040 137° Southeast 465 535 39,000 -565 Descending FlightAware ADS-B
Mon 07:01:55 PM 43.4290 -76.3200 136° Southeast 476 548 39,000  Level FlightAware ADS-B
Mon 07:02:40 PM 43.3580 -76.2270 136° Southeast 475 547 39,000  Level FlightAware ADS-B
Mon 07:03:15 PM 43.3040 -76.1550 136° Southeast 466 536 39,000  Level FlightAware ADS-B
Mon 07:03:55 PM 43.2480 -76.0830 137° Southeast 454 522 39,000  Level FlightAware ADS-B
Mon 07:04:37 PM 43.1820 -75.9960 136° Southeast 450 518 39,000  Level FlightAware ADS-B
Mon 07:05:15 PM 43.1220 -75.9180 136° Southeast 454 522 39,000  Level FlightAware ADS-B
Mon 07:05:55 PM 43.0500 -75.8490 145° Southeast 465 535 39,000  Level FlightAware ADS-B
Mon 07:06:35 PM 42.9770 -75.7940 151° Southeast 467 537 39,000 -286 Level FlightAware ADS-B
Mon 07:07:40 PM 42.8550 -75.7020 151° Southeast 466 536 38,500 -840 Descending FlightAware ADS-B
Mon 07:08:15 PM 42.7950 -75.6510 148° Southeast 473 544 37,600 -1,535 Descending FlightAware ADS-B
Mon 07:09:06 PM 42.6840 -75.5670 151° Southeast 488 562 36,300 -1,355 Descending FlightAware ADS-B
Mon 07:09:48 PM 42.5900 -75.5520 173° South 496 571 35,500 -1,157 Descending FlightAware ADS-B
Mon 07:10:29 PM 42.4970 -75.5490 179° South 499 574 34,700 -1,361 Descending FlightAware ADS-B
Mon 07:11:25 PM 42.3660 -75.5460 179° South 506 582 33,300 -1,592 Descending FlightAware ADS-B
Mon 07:12:07 PM 42.2680 -75.5450 180° South 494 568 32,100 -1,692 Descending FlightAware ADS-B
Mon 07:12:43 PM 42.1870 -75.5460 181° South 481 554 31,100 -1,658 Descending FlightAware ADS-B
Mon 07:13:23 PM 42.0990 -75.5460 180° South 475 547 30,000 -1,575 Descending FlightAware ADS-B
Mon 07:14:03 PM 42.0100 -75.5440 179° South 480 552 29,000 -759 Descending FlightAware ADS-B
Mon 07:14:42 PM 41.9370 -75.5420 179° South 480 552 29,000 -690 Level FlightAware ADS-B
Mon 07:15:30 PM 41.8290 -75.5400 179° South 471 542 28,000 -674 Descending FlightAware ADS-B
Mon 07:16:11 PM 41.8510 -75.5420 356° North 485 558 28,000  Level FlightAware ADS-B
Mon 07:16:58 PM 41.7620 -75.5420 180° South 485 558 28,000 -490 Level FlightAware ADS-B
Mon 07:17:49 PM 41.5280 -75.4121 157° South 460 529 27,200 -857 Descending FlightAware ADS-B
Mon 07:18:15 PM 41.4830 -75.3717 146° Southeast 452 520 26,900 -857 Descending FlightAware ADS-B
Mon 07:18:45 PM 41.4337 -75.3205 142° Southeast 450 518 26,400 -871 Descending FlightAware ADS-B
Mon 07:19:17 PM 41.3828 -75.2669 142° Southeast 444 511 26,000 -358 Descending FlightAware ADS-B
Mon 07:19:52 PM 41.3258 -75.2073 142° Southeast 444 511 26,000  Level FlightAware ADS-B
Mon 07:20:23 PM 41.2751 -75.1547 142° Southeast 445 512 26,000  Level FlightAware ADS-B
Mon 07:20:54 PM 41.2249 -75.1028 142° Southeast 450 518 26,000 -194 Level FlightAware ADS-B
Mon 07:21:25 PM 41.1742 -75.0506 142° Southeast 445 512 25,800 -1,279 Descending FlightAware ADS-B
Mon 07:21:55 PM 41.1250 -75.0000 142° Southeast 448 516 24,700 -2,361 Descending FlightAware ADS-B
Mon 07:22:26 PM 41.0746 -74.9482 142° Southeast 460 529 23,400 -1,778 Descending FlightAware ADS-B
Mon 07:22:49 PM 41.0362 -74.9079 142° Southeast 454 522 23,100 -828 Descending FlightAware ADS-B
Mon 07:22:55 PM 41.0268 -74.8958 136° Southeast 456 525 23,000 -429 Descending FlightAware ADS-B
Mon 07:23:03 PM 41.0168 -74.8802 130° Southeast 456 525 23,000  Level FlightAware ADS-B
Mon 07:23:14 PM 41.0040 -74.8543 123° Southeast 457 526 23,000  Level FlightAware ADS-B
Mon 07:23:20 PM 40.9981 -74.8386 116° Southeast 457 526 23,000  Level FlightAware ADS-B
Mon 07:23:27 PM 40.9928 -74.8202 111° Southeast 459 528 23,000  Level FlightAware ADS-B
Mon 07:23:40 PM 40.9865 -74.7833 103° East 465 535 23,000 -682 Level FlightAware ADS-B
Mon 07:24:11 PM 40.9766 -74.6982 99° East 465 535 22,500 -1,377 Descending FlightAware ADS-B
Mon 07:24:41 PM 40.9680 -74.6149 98° East 450 518 21,600 -1,600 Descending FlightAware ADS-B
Mon 07:25:11 PM 40.9595 -74.5345 98° East 427 491 20,900 -1,065 Descending FlightAware ADS-B
Mon 07:25:43 PM 40.9510 -74.4549 98° East 400 460 20,500 -870 Descending FlightAware ADS-B
Mon 07:26:20 PM 40.9415 -74.3696 98° East 376 433 19,900 -971 Descending FlightAware ADS-B
Mon 07:26:51 PM 40.9338 -74.3013 98° East 358 412 19,400 -923 Descending FlightAware ADS-B
Mon 07:27:12 PM 40.9288 -74.2572 99° East 363 418 19,100 -774 Descending FlightAware ADS-B
Mon 07:27:22 PM 40.9264 -74.2366 99° East 343 395 19,000 -261 Descending FlightAware ADS-B
Mon 07:27:35 PM 40.9228 -74.2087 100° East 341 392 19,000  Level FlightAware ADS-B
Mon 07:27:40 PM 40.9208 -74.1993 106° East 340 391 19,000  Level FlightAware ADS-B
Mon 07:27:42 PM 40.9195 -74.1944 109° East 339 390 19,000  Level FlightAware ADS-B
Mon 07:27:49 PM 40.9156 -74.1828 114° Southeast 336 387 19,000  Level FlightAware ADS-B
Mon 07:27:57 PM 40.9080 -74.1677 124° Southeast 333 383 19,000  Level FlightAware ADS-B
Mon 07:27:58 PM 40.9075 -74.1670 133° Southeast 333 383 19,000  Level FlightAware ADS-B
Mon 07:28:02 PM 40.9029 -74.1599 131° Southeast 332 382 19,000  Level FlightAware ADS-B
Mon 07:28:04 PM 40.9009 -74.1573 136° Southeast 332 382 19,000  Level FlightAware ADS-B
Mon 07:28:08 PM 40.8961 -74.1517 139° Southeast 332 382 19,000  Level FlightAware ADS-B
Mon 07:28:15 PM 40.8886 -74.1447 145° Southeast 331 381 19,000  Level FlightAware ADS-B
Mon 07:28:19 PM 40.8826 -74.1401 150° Southeast 331 381 19,000  Level FlightAware ADS-B
Mon 07:28:24 PM 40.8762 -74.1355 151° Southeast 331 381 19,000 -600 Level FlightAware ADS-B
Mon 07:28:49 PM 40.8419 -74.1135 154° Southeast 335 386 18,700 -774 Descending FlightAware ADS-B
Mon 07:28:55 PM 40.8338 -74.1085 155° Southeast 335 386 18,600 -1,091 Descending FlightAware ADS-B
Mon 07:29:22 PM 40.7964 -74.0850 155° Southeast 327 376 18,100 -1,200 Descending FlightAware ADS-B
Mon 07:29:25 PM 40.7915 -74.0819 154° Southeast 325 374 18,000 -1,765 Descending FlightAware ADS-B
Mon 07:29:56 PM 40.7500 -74.0555 154° Southeast 323 372 17,100 -1,784 Descending FlightAware ADS-B
Mon 07:30:02 PM 40.7419 -74.0505 155° Southeast 323 372 16,900 -1,636 Descending FlightAware ADS-B
Mon 07:30:29 PM 40.7056 -74.0274 154° Southeast 322 371 16,200 -1,588 Descending FlightAware ADS-B
Mon 07:30:36 PM 40.6958 -74.0211 154° Southeast 322 371 16,000 -1,500 Descending FlightAware ADS-B
Mon 07:31:01 PM 40.6623 -73.9997 154° Southeast 317 365 15,400 -1,368 Descending FlightAware ADS-B
Mon 07:31:33 PM 40.6208 -73.9728 154° Southeast 309 356 14,700 -1,333 Descending FlightAware ADS-B
Mon 07:32:04 PM 40.5815 -73.9475 154° Southeast 304 350 14,000 -1,475 Descending FlightAware ADS-B
Mon 07:32:34 PM 40.5436 -73.9233 154° Southeast 301 346 13,200 -1,082 Descending FlightAware ADS-B
Mon 07:33:05 PM 40.5051 -73.8991 154° Southeast 308 354 12,900 -885 Descending FlightAware ADS-B
Mon 07:33:35 PM 40.4666 -73.8751 155° Southeast 300 345 12,300 -1,258 Descending FlightAware ADS-B
Mon 07:34:07 PM 40.4273 -73.8504 154° Southeast 296 341 11,600 -1,324 Descending FlightAware ADS-B
Mon 07:34:43 PM 40.3828 -73.8225 154° Southeast 293 337 10,800 -1,455 Descending FlightAware ADS-B
Mon 07:35:13 PM 40.3457 -73.7993 155° Southeast 293 337 10,000 -1,435 Descending FlightAware ADS-B
Mon 07:35:29 PM 40.3272 -73.7877 154° Southeast 292 336 9,700 -1,455 Descending FlightAware ADS-B
Mon 07:35:46 PM 40.3062 -73.7746 155° Southeast 292 336 9,200 -1,500 Descending FlightAware ADS-B
Mon 07:36:05 PM 40.2825 -73.7598 155° Southeast 291 335 8,800 -1,313 Descending FlightAware ADS-B
Mon 07:36:18 PM 40.2668 -73.7499 154° Southeast 289 333 8,500 -1,333 Descending FlightAware ADS-B
Mon 07:36:23 PM 40.2611 -73.7453 148° Southeast 290 334 8,400 -1,385 Descending FlightAware ADS-B
Mon 07:36:31 PM 40.2531 -73.7361 139° Southeast 292 336 8,200 -1,304 Descending FlightAware ADS-B
Mon 07:36:46 PM 40.2434 -73.7133 119° Southeast 294 338 7,900 -1,250 Descending FlightAware ADS-B
Mon 07:36:55 PM 40.2416 -73.6975 98° East 294 338 7,700 -1,556 Descending FlightAware ADS-B
Mon 07:37:13 PM 40.2478 -73.6667 75° East 293 337 7,200 -1,355 Descending FlightAware ADS-B
Mon 07:37:26 PM 40.2589 -73.6503 48° Northeast 289 333 7,000 -1,263 Descending FlightAware ADS-B
Mon 07:37:32 PM 40.2656 -73.6442 35° Northeast 286 329 6,800 -1,588 Descending FlightAware ADS-B
Mon 07:38:00 PM 40.2976 -73.6211 29° Northeast 286 329 6,100 -1,435 Descending FlightAware ADS-B
Mon 07:38:18 PM 40.3185 -73.6065 28° Northeast 287 330 5,700 -1,235 Descending FlightAware ADS-B
Mon 07:38:34 PM 40.3381 -73.5928 28° Northeast 286 329 5,400 -1,059 Descending FlightAware ADS-B
Mon 07:38:52 PM 40.3585 -73.5787 28° Northeast 284 327 5,100 -1,077 Descending FlightAware ADS-B
Mon 07:39:13 PM 40.3832 -73.5615 28° Northeast 281 323 4,700 -1,119 Descending FlightAware ADS-B
Mon 07:39:51 PM 40.4240 -73.5330 28° Northeast 278 320 4,000 -750 Descending FlightAware ADS-B
Mon 07:40:17 PM 40.4540 -73.5110 29° Northeast 282 325 3,900 -120 Descending FlightAware ADS-B
Mon 07:40:41 PM 40.4840 -73.4910 27° Northeast 282 325 3,900  Level FlightAware ADS-B
Mon 07:40:57 PM 40.5020 -73.4780 29° Northeast 281 323 3,900  Level FlightAware ADS-B
Mon 07:41:26 PM 40.5350 -73.4550 28° Northeast 277 319 3,900  Level FlightAware ADS-B
Mon 07:41:38 PM 40.5480 -73.4460 28° Northeast 268 308 3,900  Level FlightAware ADS-B
Mon 07:42:08 PM 40.5800 -73.4280 23° Northeast 241 277 3,900 -421 Level FlightAware ADS-B
Mon 07:42:35 PM 40.6100 -73.4210 10° North 226 260 3,500 -1,019 Descending FlightAware ADS-B
Mon 07:43:01 PM 40.6370 -73.4150 10° North 230 265 3,000 -973 Descending FlightAware ADS-B
Mon 07:43:12 PM 40.6480 -73.4130 North 233 268 2,900 -150 Descending FlightAware ADS-B
Mon 07:43:41 PM 40.6800 -73.4090 North 232 267 2,900  Level FlightAware ADS-B
Mon 07:43:57 PM 40.6960 -73.4090 360° North 231 266 2,900  Level FlightAware ADS-B
Mon 07:44:27 PM 40.7270 -73.4090 360° North 230 265 2,900  Level FlightAware ADS-B
Mon 07:44:39 PM 40.7410 -73.4090 360° North 230 265 2,900  Level FlightAware ADS-B
Mon 07:44:54 PM 40.7560 -73.4090 360° North 231 266 2,900  Level FlightAware ADS-B
Mon 07:45:04 PM 40.7660 -73.4110 351° North 226 260 2,900 214 Level FlightAware ADS-B
Mon 07:45:22 PM 40.7810 -73.4240 327° Northwest 217 250 3,000  Climbing FlightAware ADS-B
Mon 07:45:47 PM 40.7980 -73.4500 311° West 217 250 2,900 -118 Descending FlightAware ADS-B
Mon 07:46:13 PM 40.8150 -73.4770 310° West 209 241 2,900  Level FlightAware ADS-B
Mon 07:46:47 PM 40.8350 -73.5070 311° West 175 201 2,900  Level FlightAware ADS-B
Mon 07:47:13 PM 40.8480 -73.5270 311° West 163 188 2,900  Level FlightAware ADS-B
Mon 07:47:39 PM 40.8610 -73.5450 314° West 164 189 2,900  Level FlightAware ADS-B
Mon 07:48:05 PM 40.8730 -73.5670 306° West 157 181 2,900  Level FlightAware ADS-B
Mon 07:48:35 PM 40.8750 -73.5910 276° West 156 180 2,900 -833 Level FlightAware ADS-B
Mon 07:49:17 PM 40.8360 -73.6060 196° South 150 173 1,900 -800 Descending FlightAware ADS-B
Mon 07:49:50 PM 40.8160 -73.6210 210° Southwest 152 175 1,900  Level FlightAware ADS-B
Mon 07:50:22 PM 40.7970 -73.6360 211° Southwest 148 170 1,900  Level FlightAware ADS-B
Mon 07:50:51 PM 40.7800 -73.6490 210° Southwest 148 170 1,900  Level FlightAware ADS-B
Mon 07:51:18 PM 40.7640 -73.6620 212° Southwest 148 170 1,900  Level FlightAware ADS-B
Mon 07:51:35 PM 40.7530 -73.6700 209° Southwest 148 170 1,900  Level FlightAware ADS-B
Mon 07:52:03 PM 40.7370 -73.6830 212° Southwest 149 171 1,900 -346 Level FlightAware ADS-B
Mon 07:52:27 PM 40.7230 -73.6940 211° Southwest 148 170 1,600 -732 Descending FlightAware ADS-B
Mon 07:52:44 PM 40.7130 -73.7020 211° Southwest 146 168 1,400 -652 Descending FlightAware ADS-B
Mon 07:53:13 PM 40.6970 -73.7150 212° Southwest 126 145 1,100 -585 Descending FlightAware ADS-B
Mon 07:53:25 PM 40.6910 -73.7190 207° Southwest 118 136 1,000 -500 Descending FlightAware ADS-B

Login

Don't have an account? Register now (free) for customized features, flight alerts, and more!